Time;durP1;ratioP1;P1;durP2;ratioP2;P2;SDS_P1;SDS_P2;PMS_P1;PMS_P2;Temp;Humidity;BMP_temperature;BMP_pressure;BME280_temperature;BME280_humidity;BME280_pressure;Samples;Min_cycle;Max_cycle;Signal;HPM_P1;HPM_P2
2021/05/24 00:01:25;;;;;;;1.60;0.82;;;12.40;99.90;;;;;;10456574;28;20044;-55
2021/05/24 00:06:27;;;;;;;2.25;1.00;;;12.40;99.90;;;;;;10455950;28;20392;-56
2021/05/24 00:11:30;;;;;;;1.00;0.90;;;12.40;99.90;;;;;;10456293;28;20047;-54
2021/05/24 00:16:32;;;;;;;3.25;1.17;;;12.40;99.90;;;;;;10456240;28;20049;-56
2021/05/24 00:21:34;;;;;;;5.72;1.33;;;12.40;99.90;;;;;;10456201;28;20045;-56
2021/05/24 00:26:37;;;;;;;1.88;0.98;;;12.40;99.90;;;;;;10455859;28;20037;-56
2021/05/24 00:31:39;;;;;;;1.33;0.75;;;12.40;99.90;;;;;;10456518;28;20037;-56
2021/05/24 00:36:40;;;;;;;2.47;0.93;;;12.50;99.90;;;;;;10455534;28;20070;-57
2021/05/24 00:41:42;;;;;;;5.03;1.00;;;12.40;99.90;;;;;;10460138;28;20056;-57
2021/05/24 00:46:44;;;;;;;1.23;0.70;;;12.50;99.90;;;;;;10461853;28;20036;-56
2021/05/24 00:51:46;;;;;;;1.58;1.02;;;12.50;99.90;;;;;;10462999;28;20045;-57
2021/05/24 00:56:49;;;;;;;2.08;1.10;;;12.50;99.90;;;;;;10461432;28;20049;-57
2021/05/24 01:01:54;;;;;;;3.80;0.80;;;12.40;99.90;;;;;;10461687;28;20501;-57
2021/05/24 01:06:57;;;;;;;3.90;1.15;;;12.40;99.90;;;;;;10462343;28;20037;-56
2021/05/24 01:11:59;;;;;;;2.25;0.85;;;12.50;99.90;;;;;;10462852;28;20047;-56
2021/05/24 01:17:02;;;;;;;2.08;0.70;;;12.40;99.90;;;;;;10462311;28;20049;-56
2021/05/24 01:22:03;;;;;;;0.95;0.93;;;12.50;99.90;;;;;;10462003;28;20123;-56
2021/05/24 01:27:06;;;;;;;2.90;0.77;;;12.40;99.90;;;;;;10461502;28;20470;-56
2021/05/24 01:32:08;;;;;;;2.38;0.82;;;12.50;99.90;;;;;;10461678;28;20049;-56
2021/05/24 01:37:10;;;;;;;2.53;0.98;;;12.50;99.90;;;;;;10461462;28;20069;-55
2021/05/24 01:42:12;;;;;;;3.28;0.98;;;12.40;99.90;;;;;;10460895;28;20136;-56
2021/05/24 01:47:14;;;;;;;1.10;0.82;;;12.40;99.90;;;;;;10460736;28;20388;-58
2021/05/24 01:52:18;;;;;;;4.05;1.05;;;12.40;99.90;;;;;;10460431;28;20388;-56
2021/05/24 01:57:20;;;;;;;5.05;0.93;;;12.40;99.90;;;;;;10460602;28;20057;-55
2021/05/24 02:02:22;;;;;;;7.95;1.15;;;12.40;99.90;;;;;;10460846;28;20045;-53
2021/05/24 02:07:29;;;;;;;3.50;1.00;;;12.40;99.90;;;;;;10459973;28;20477;-57
2021/05/24 02:12:32;;;;;;;1.70;0.80;;;12.40;99.90;;;;;;10460359;28;20041;-56
2021/05/24 02:17:34;;;;;;;4.82;1.15;;;12.40;99.90;;;;;;10459665;28;20049;-55
2021/05/24 02:22:36;;;;;;;2.60;0.90;;;12.40;99.90;;;;;;10459574;28;20045;-56
2021/05/24 02:27:38;;;;;;;1.83;0.90;;;12.40;99.90;;;;;;10459330;28;20045;-56
2021/05/24 02:32:41;;;;;;;2.53;0.82;;;12.40;99.90;;;;;;10459251;28;20051;-56
2021/05/24 02:37:45;;;;;;;1.52;0.90;;;12.40;99.90;;;;;;10459451;28;20055;-56
2021/05/24 02:42:48;;;;;;;2.80;1.10;;;12.30;99.90;;;;;;10458706;28;20501;-56
2021/05/24 02:47:51;;;;;;;2.60;0.88;;;12.20;99.90;;;;;;10458569;28;20071;-57
2021/05/24 02:52:54;;;;;;;4.28;0.65;;;12.30;99.90;;;;;;10458286;28;20214;-56
2021/05/24 02:57:56;;;;;;;2.97;0.80;;;12.30;99.90;;;;;;10458319;28;20044;-55
2021/05/24 03:02:59;;;;;;;3.35;0.85;;;12.20;99.90;;;;;;10457837;28;20040;-56
2021/05/24 03:08:01;;;;;;;1.88;0.70;;;12.20;99.90;;;;;;10457902;28;20044;-55
2021/05/24 03:13:03;;;;;;;1.60;0.75;;;12.20;99.90;;;;;;10457735;28;20045;-57
2021/05/24 03:18:05;;;;;;;4.97;1.08;;;12.20;99.90;;;;;;10457650;28;20051;-56
2021/05/24 03:23:07;;;;;;;1.00;0.88;;;12.10;99.90;;;;;;10457284;28;20041;-55
2021/05/24 03:28:09;;;;;;;1.50;0.90;;;12.10;99.90;;;;;;10457377;28;20045;-56
2021/05/24 03:33:11;;;;;;;2.35;0.95;;;12.10;99.90;;;;;;10457144;28;20045;-56
2021/05/24 03:38:13;;;;;;;2.95;0.93;;;12.10;99.90;;;;;;10457434;28;20053;-57
2021/05/24 03:43:15;;;;;;;2.72;0.77;;;12.10;99.90;;;;;;10457277;28;20137;-57
2021/05/24 03:48:17;;;;;;;1.70;0.65;;;12.10;99.90;;;;;;10456679;28;20380;-56
2021/05/24 03:53:19;;;;;;;4.55;1.23;;;12.10;99.90;;;;;;10456674;28;20045;-58
2021/05/24 03:58:21;;;;;;;2.35;0.90;;;12.00;99.90;;;;;;10456499;28;20503;-57
2021/05/24 04:03:23;;;;;;;1.80;0.85;;;12.10;99.90;;;;;;10456297;28;20366;-56
2021/05/24 04:08:30;;;;;;;1.33;0.70;;;12.10;99.90;;;;;;10456619;28;20478;-55
2021/05/24 04:13:32;;;;;;;1.80;0.98;;;12.10;99.90;;;;;;10457006;28;20067;-55
2021/05/24 04:18:35;;;;;;;3.15;0.90;;;12.00;99.90;;;;;;10462526;28;20400;-55
2021/05/24 04:23:37;;;;;;;0.90;0.82;;;12.00;99.90;;;;;;10464216;28;20052;-56
2021/05/24 04:28:39;;;;;;;6.55;1.00;;;12.00;99.90;;;;;;10463820;28;20392;-63
2021/05/24 04:33:41;;;;;;;4.82;0.90;;;12.00;99.90;;;;;;10463782;28;20059;-55
2021/05/24 04:38:43;;;;;;;2.53;1.00;;;12.00;99.90;;;;;;10464151;28;20041;-57
2021/05/24 04:43:45;;;;;;;2.72;1.02;;;12.00;99.90;;;;;;10463275;28;20489;-55
2021/05/24 04:48:47;;;;;;;2.13;0.90;;;12.00;99.90;;;;;;10463736;28;20049;-57
2021/05/24 04:53:49;;;;;;;3.28;1.13;;;12.00;99.90;;;;;;10463325;28;20041;-56
2021/05/24 04:58:51;;;;;;;2.15;1.00;;;12.00;99.90;;;;;;10462999;28;20049;-56
2021/05/24 05:03:53;;;;;;;1.83;1.00;;;12.00;99.90;;;;;;10461506;28;20072;-57
2021/05/24 05:08:55;;;;;;;4.15;0.65;;;12.00;99.90;;;;;;10463042;28;20047;-54
2021/05/24 05:13:56;;;;;;;1.08;0.80;;;12.10;99.90;;;;;;10462367;28;20043;-54
2021/05/24 05:18:58;;;;;;;2.67;0.88;;;12.10;99.90;;;;;;10462098;28;20045;-56
2021/05/24 05:24:00;;;;;;;0.90;0.73;;;12.20;99.90;;;;;;10461938;28;20128;-57
2021/05/24 05:29:03;;;;;;;3.67;1.17;;;12.20;99.90;;;;;;10460537;28;20051;-56
2021/05/24 05:34:05;;;;;;;4.07;0.98;;;12.20;99.90;;;;;;10461352;28;20501;-57
2021/05/24 05:39:08;;;;;;;1.83;0.80;;;12.30;99.90;;;;;;10461611;28;20051;-55
2021/05/24 05:44:10;;;;;;;1.33;0.90;;;12.40;99.90;;;;;;10461415;28;20049;-56
2021/05/24 05:49:12;;;;;;;2.47;0.63;;;12.40;99.90;;;;;;10461474;28;20051;-58
2021/05/24 05:54:14;;;;;;;2.08;0.63;;;12.40;99.90;;;;;;10459459;28;20469;-57
2021/05/24 05:59:19;;;;;;;2.63;0.88;;;12.50;99.90;;;;;;10460651;28;20045;-55
2021/05/24 06:04:21;;;;;;;1.85;0.82;;;12.60;99.90;;;;;;10460891;28;20052;-56
2021/05/24 06:09:23;;;;;;;1.33;0.70;;;12.60;99.90;;;;;;10460138;28;20396;-56
2021/05/24 06:14:25;;;;;;;3.70;0.82;;;12.70;99.90;;;;;;10459593;28;20485;-56
2021/05/24 06:19:27;;;;;;;3.58;0.90;;;12.80;99.90;;;;;;10459750;28;20491;-55
2021/05/24 06:24:28;;;;;;;2.83;1.10;;;12.90;99.90;;;;;;10459114;28;20063;-56
2021/05/24 06:29:32;;;;;;;10.00;1.50;;;12.90;99.90;;;;;;10459685;28;20041;-57
2021/05/24 06:34:34;;;;;;;2.90;1.23;;;13.00;99.90;;;;;;10458791;28;20049;-56
2021/05/24 06:39:36;;;;;;;2.30;0.90;;;13.20;99.90;;;;;;10458775;28;20075;-55
2021/05/24 06:44:38;;;;;;;2.03;0.82;;;13.20;99.90;;;;;;10457173;28;20056;-57
2021/05/24 06:49:40;;;;;;;2.78;0.65;;;13.30;99.90;;;;;;10457055;28;20552;-56
2021/05/24 06:54:42;;;;;;;3.30;1.00;;;13.40;99.90;;;;;;10458599;28;20052;-56
2021/05/24 06:59:44;;;;;;;2.40;1.30;;;13.40;99.90;;;;;;10458196;28;20052;-55
2021/05/24 07:04:47;;;;;;;3.50;1.00;;;13.50;99.90;;;;;;10458550;28;20044;-57
2021/05/24 07:09:49;;;;;;;1.85;1.10;;;13.60;99.90;;;;;;10457760;28;20049;-58
2021/05/24 07:14:53;;;;;;;1.70;0.90;;;13.60;99.90;;;;;;10458159;28;20052;-55
2021/05/24 07:19:56;;;;;;;3.40;1.40;;;13.70;99.90;;;;;;10455165;28;20045;-56
2021/05/24 07:24:58;;;;;;;1.42;0.70;;;13.60;99.90;;;;;;10414606;28;20042;-56
2021/05/24 07:30:00;;;;;;;5.57;1.45;;;13.80;99.90;;;;;;10413244;28;20041;-58
2021/05/24 07:35:02;;;;;;;1.42;0.75;;;13.60;99.90;;;;;;10415674;28;20037;-56
2021/05/24 07:40:09;;;;;;;6.00;1.52;;;13.50;99.90;;;;;;10415777;28;20268;-57
2021/05/24 07:45:11;;;;;;;2.10;1.33;;;13.50;99.90;;;;;;10415423;28;20051;-57
2021/05/24 07:50:13;;;;;;;2.53;0.70;;;13.60;99.90;;;;;;10415124;28;20045;-56
2021/05/24 07:55:15;;;;;;;3.22;1.13;;;13.50;99.90;;;;;;10414954;28;20501;-56
2021/05/24 08:00:19;;;;;;;6.25;1.23;;;13.60;99.90;;;;;;10415219;28;20103;-57
2021/05/24 08:05:21;;;;;;;2.03;0.95;;;13.50;99.90;;;;;;10415508;28;20125;-56
2021/05/24 08:10:23;;;;;;;3.80;0.80;;;13.50;99.90;;;;;;10414887;28;20050;-58
2021/05/24 08:15:30;;;;;;;4.68;1.20;;;13.30;99.90;;;;;;10413426;28;20481;-58
2021/05/24 08:20:33;;;;;;;1.80;1.10;;;13.40;99.90;;;;;;10415187;28;20053;-56
2021/05/24 08:25:35;;;;;;;2.90;1.10;;;13.40;99.90;;;;;;10413789;28;20059;-57
2021/05/24 08:30:37;;;;;;;3.33;1.40;;;13.20;99.90;;;;;;10414580;28;20385;-57
2021/05/24 08:35:39;;;;;;;2.72;1.20;;;13.20;99.90;;;;;;10414391;28;20050;-57
2021/05/24 08:40:43;;;;;;;1.83;1.20;;;13.30;99.90;;;;;;10414889;28;20056;-57
2021/05/24 08:45:45;;;;;;;4.10;1.55;;;13.40;99.90;;;;;;10414280;28;20047;-58
2021/05/24 08:50:47;;;;;;;5.82;1.40;;;13.50;99.90;;;;;;10414603;28;20045;-57
2021/05/24 08:55:50;;;;;;;3.28;1.27;;;13.50;99.90;;;;;;10413178;28;20132;-57
2021/05/24 09:00:52;;;;;;;4.35;1.60;;;13.40;99.90;;;;;;10416282;28;20049;-58
2021/05/24 09:05:54;;;;;;;3.28;1.92;;;13.50;99.90;;;;;;10421516;28;20056;-57
2021/05/24 09:10:56;;;;;;;4.65;1.90;;;13.40;99.90;;;;;;10421340;28;20038;-57
2021/05/24 09:15:59;;;;;;;2.05;1.50;;;13.40;99.90;;;;;;10420902;28;20504;-57
2021/05/24 09:21:02;;;;;;;1.92;1.55;;;13.50;99.90;;;;;;10421140;28;20067;-57
2021/05/24 09:26:10;;;;;;;4.38;2.03;;;13.40;99.90;;;;;;10420736;28;20083;-58
2021/05/24 09:31:24;;;;;;;4.05;1.17;;;13.30;99.90;;;;;;10420519;28;20045;-57
2021/05/24 09:36:27;;;;;;;6.10;1.50;;;13.20;99.90;;;;;;10420122;28;20565;-57
2021/05/24 09:41:43;;;;;;;4.95;1.48;;;13.10;99.90;;;;;;10419939;28;20050;-57
2021/05/24 09:46:45;;;;;;;6.35;1.50;;;13.00;99.90;;;;;;10418564;28;20517;-57
2021/05/24 09:51:47;;;;;;;4.20;1.60;;;13.20;99.90;;;;;;10419451;28;20045;-57
2021/05/24 09:56:50;;;;;;;2.85;1.20;;;13.40;99.90;;;;;;10419352;28;20041;-58
2021/05/24 10:01:57;;;;;;;3.10;1.67;;;13.30;99.90;;;;;;10419120;28;20389;-57
2021/05/24 10:07:02;;;;;;;1.40;1.02;;;13.30;99.90;;;;;;10419105;28;20037;-58
2021/05/24 10:12:05;;;;;;;1.48;0.93;;;13.40;99.90;;;;;;10418878;28;20132;-58
2021/05/24 10:17:11;;;;;;;2.47;1.40;;;13.40;99.90;;;;;;10418846;28;20042;-57
2021/05/24 10:22:13;;;;;;;5.78;1.98;;;13.40;99.90;;;;;;10420178;28;20047;-57
2021/05/24 10:27:16;;;;;;;5.28;1.60;;;13.40;99.90;;;;;;10418554;28;20051;-57
2021/05/24 10:32:22;;;;;;;5.45;1.25;;;13.40;99.90;;;;;;10418088;28;20052;-58
2021/05/24 10:37:24;;;;;;;1.65;1.23;;;13.50;99.90;;;;;;10417757;28;20466;-57
2021/05/24 10:42:39;;;;;;;3.72;1.27;;;13.50;99.90;;;;;;10417926;28;20049;-58
2021/05/24 10:47:53;;;;;;;3.00;0.90;;;13.60;99.90;;;;;;10417658;28;20051;-57
2021/05/24 10:52:58;;;;;;;1.25;1.15;;;13.70;99.90;;;;;;10417212;28;20469;-57
2021/05/24 10:58:13;;;;;;;3.50;1.27;;;13.90;99.90;;;;;;10417353;28;20068;-58
2021/05/24 11:03:16;;;;;;;4.70;1.30;;;13.90;99.90;;;;;;10415823;28;20045;-57
2021/05/24 11:08:26;;;;;;;3.88;1.42;;;13.90;99.90;;;;;;10417168;28;20049;-58
2021/05/24 11:13:29;;;;;;;2.47;1.80;;;14.00;99.90;;;;;;10416629;28;20120;-57
2021/05/24 11:18:31;;;;;;;1.35;1.20;;;13.90;99.90;;;;;;10417017;28;20073;-57
2021/05/24 11:28:51;;;;;;;3.88;1.15;;;14.50;99.90;;;;;;10416513;28;20053;-60
2021/05/24 11:33:56;;;;;;;2.92;1.38;;;14.50;99.90;;;;;;10416156;28;20045;-57
2021/05/24 11:39:17;;;;;;;1.13;0.70;;;14.40;99.90;;;;;;10415765;28;20049;-58
2021/05/24 11:44:47;;;;;;;2.58;0.60;;;14.50;99.90;;;;;;10416323;28;20063;-57
2021/05/24 11:49:56;;;;;;;1.20;0.57;;;14.50;99.90;;;;;;10415754;28;20045;-58
2021/05/24 11:55:14;;;;;;;0.80;0.65;;;14.80;99.90;;;;;;10415420;28;20081;-58
2021/05/24 12:00:20;;;;;;;0.93;0.63;;;14.90;99.90;;;;;;10416055;28;20073;-58
2021/05/24 12:05:23;;;;;;;0.70;0.50;;;15.00;99.90;;;;;;10416054;28;20088;-58
2021/05/24 12:10:26;;;;;;;1.10;0.88;;;14.70;99.90;;;;;;10414736;28;20449;-57
2021/05/24 12:15:30;;;;;;;2.92;0.80;;;14.40;99.90;;;;;;10415187;28;20052;-58
2021/05/24 12:20:32;;;;;;;5.72;2.28;;;14.30;99.90;;;;;;10414060;28;20048;-57
2021/05/24 12:25:34;;;;;;;0.63;0.63;;;14.40;99.90;;;;;;10414967;28;20381;-58
2021/05/24 12:30:42;;;;;;;1.25;0.85;;;14.90;99.90;;;;;;10414929;28;20060;-57
2021/05/24 12:35:50;;;;;;;0.88;0.70;;;14.80;99.90;;;;;;10416934;28;20053;-57
2021/05/24 12:40:56;;;;;;;1.55;0.80;;;14.80;99.90;;;;;;10422167;28;20366;-57
2021/05/24 12:45:58;;;;;;;0.43;0.43;;;14.80;99.90;;;;;;10421657;28;20060;-58
2021/05/24 12:51:26;;;;;;;0.70;0.70;;;15.10;99.90;;;;;;10422278;28;20112;-57
2021/05/24 12:56:46;;;;;;;2.88;1.02;;;15.10;99.90;;;;;;10422437;28;20052;-57
2021/05/24 13:01:53;;;;;;;0.40;0.40;;;14.60;99.90;;;;;;10421472;28;20041;-57
2021/05/24 13:06:57;;;;;;;0.63;0.63;;;14.50;99.90;;;;;;10420135;28;20047;-57
2021/05/24 13:12:07;;;;;;;0.82;0.75;;;14.50;99.90;;;;;;10421131;28;20043;-57
2021/05/24 13:32:47;;;;;;;1.85;0.60;;;14.40;99.90;;;;;;10420173;28;20045;-57
2021/05/24 13:37:49;;;;;;;0.93;0.40;;;14.60;99.90;;;;;;10420071;28;20371;-58
2021/05/24 13:42:52;;;;;;;1.95;0.68;;;14.70;99.90;;;;;;10418878;28;20050;-57
2021/05/24 13:47:54;;;;;;;0.70;0.60;;;14.70;99.90;;;;;;10417796;28;20042;-57
2021/05/24 13:52:56;;;;;;;0.60;0.57;;;14.70;99.90;;;;;;10419696;28;20056;-57
2021/05/24 13:57:58;;;;;;;2.50;1.13;;;14.80;99.90;;;;;;10419636;28;20056;-58
2021/05/24 14:03:01;;;;;;;1.33;0.90;;;14.90;99.90;;;;;;10419376;28;20048;-57
2021/05/24 14:08:06;;;;;;;0.65;0.65;;;14.80;99.90;;;;;;10418661;28;20572;-57
2021/05/24 14:13:08;;;;;;;2.60;1.65;;;14.90;99.90;;;;;;10418822;28;20051;-58
2021/05/24 14:18:10;;;;;;;1.35;1.10;;;15.10;99.90;;;;;;10417613;28;20053;-57
2021/05/24 14:23:12;;;;;;;2.05;1.00;;;15.20;99.90;;;;;;10418397;28;20397;-57
2021/05/24 14:28:14;;;;;;;1.08;1.05;;;15.50;99.90;;;;;;10418299;28;20051;-58
2021/05/24 14:33:16;;;;;;;1.10;1.10;;;15.40;99.90;;;;;;10418001;28;20508;-57
2021/05/24 14:38:17;;;;;;;2.17;0.95;;;15.60;99.90;;;;;;10417830;28;20055;-62
2021/05/24 14:43:20;;;;;;;1.65;1.10;;;15.90;99.90;;;;;;10417543;28;20061;-57
2021/05/24 14:48:22;;;;;;;1.15;0.90;;;16.10;99.90;;;;;;10417475;28;20377;-58
2021/05/24 14:53:29;;;;;;;2.35;1.20;;;15.90;99.90;;;;;;10417701;28;20041;-57
2021/05/24 14:58:31;;;;;;;2.67;1.00;;;16.30;99.90;;;;;;10417086;28;20051;-57
2021/05/24 15:03:33;;;;;;;1.08;0.60;;;16.20;99.90;;;;;;10416749;28;20381;-57
2021/05/24 15:08:35;;;;;;;3.67;1.20;;;16.10;99.90;;;;;;10416657;28;20437;-57
2021/05/24 15:13:37;;;;;;;1.73;0.95;;;16.10;99.90;;;;;;10416477;28;20384;-57
2021/05/24 15:18:39;;;;;;;1.48;0.80;;;16.20;99.90;;;;;;10416327;28;20050;-58
2021/05/24 15:23:41;;;;;;;2.47;1.20;;;16.60;99.90;;;;;;10416009;28;20037;-57
2021/05/24 15:28:44;;;;;;;1.88;1.17;;;16.80;99.90;;;;;;10416579;28;20041;-57
2021/05/24 15:33:47;;;;;;;0.98;0.75;;;16.60;99.90;;;;;;10415638;28;20481;-57
2021/05/24 15:38:50;;;;;;;1.02;0.93;;;16.40;99.90;;;;;;10415874;28;20051;-58
2021/05/24 15:43:53;;;;;;;1.83;0.82;;;16.10;99.80;;;;;;10416013;28;20455;-57
2021/05/24 15:48:57;;;;;;;2.15;1.20;;;16.00;99.90;;;;;;10415550;28;20045;-57
2021/05/24 15:53:59;;;;;;;1.17;0.98;;;16.10;99.90;;;;;;10415942;28;20493;-57
2021/05/24 15:59:01;;;;;;;2.30;0.90;;;16.10;99.90;;;;;;10415316;28;20084;-58
2021/05/24 16:04:03;;;;;;;2.00;0.90;;;16.10;99.90;;;;;;10415635;28;20037;-57
2021/05/24 16:09:07;;;;;;;1.40;1.13;;;16.00;99.90;;;;;;10415401;28;20136;-57
2021/05/24 16:14:09;;;;;;;2.20;1.23;;;15.90;99.90;;;;;;10421985;28;20041;-57
2021/05/24 16:19:13;;;;;;;2.50;1.00;;;15.90;99.90;;;;;;10422156;28;20051;-60
2021/05/24 16:24:38;;;;;;;1.90;1.30;;;15.90;99.90;;;;;;10422773;28;20053;-58
2021/05/24 16:29:37;;;;;;;3.75;1.38;;;16.20;99.90;;;;;;10422527;28;20046;-57
2021/05/24 16:34:39;;;;;;;2.22;1.20;;;16.10;98.60;;;;;;10422423;28;20047;-58
2021/05/24 16:39:41;;;;;;;1.15;0.90;;;16.30;99.90;;;;;;10423165;28;20041;-57
2021/05/24 16:44:43;;;;;;;1.63;1.15;;;16.20;99.90;;;;;;10423224;28;20569;-57
2021/05/24 16:49:45;;;;;;;1.10;0.85;;;16.50;99.90;;;;;;10422569;28;20049;-57
2021/05/24 16:54:47;;;;;;;0.85;0.80;;;16.60;99.90;;;;;;10421872;28;20049;-58
2021/05/24 16:59:49;;;;;;;3.40;1.42;;;16.70;98.50;;;;;;10421570;28;20053;-58
2021/05/24 17:04:51;;;;;;;4.38;1.20;;;16.50;98.20;;;;;;10421492;28;20049;-58
2021/05/24 17:09:52;;;;;;;1.98;1.00;;;16.50;98.00;;;;;;10421463;28;20037;-57
2021/05/24 17:14:54;;;;;;;1.70;1.23;;;16.60;99.60;;;;;;10421174;28;20037;-58
2021/05/24 17:19:57;;;;;;;1.10;0.80;;;16.60;99.90;;;;;;10420727;28;20054;-58
2021/05/24 17:24:59;;;;;;;1.90;0.90;;;16.40;99.70;;;;;;10419477;28;20052;-57
2021/05/24 17:30:02;;;;;;;1.60;0.82;;;16.30;99.90;;;;;;10420964;28;20052;-58
2021/05/24 17:35:07;;;;;;;3.30;1.48;;;16.30;99.50;;;;;;10419191;28;20487;-57
2021/05/24 17:40:13;;;;;;;2.50;0.75;;;16.30;99.30;;;;;;10420498;28;20042;-57
2021/05/24 17:45:22;;;;;;;3.30;1.08;;;16.10;99.90;;;;;;10420194;28;20398;-57
2021/05/24 17:50:37;;;;;;;2.80;1.02;;;16.10;99.90;;;;;;10420110;28;20042;-58
2021/05/24 17:55:43;;;;;;;2.53;1.27;;;15.90;99.90;;;;;;10419800;28;20049;-58
2021/05/24 18:00:45;;;;;;;3.15;1.02;;;15.80;99.90;;;;;;10419927;28;20041;-58
2021/05/24 18:05:48;;;;;;;2.03;1.02;;;15.80;99.90;;;;;;10417970;28;20517;-57
2021/05/24 18:10:50;;;;;;;1.55;1.02;;;15.80;99.90;;;;;;10419827;28;20058;-57
2021/05/24 18:15:52;;;;;;;1.67;0.65;;;15.00;99.90;;;;;;10418952;28;20056;-58
2021/05/24 18:20:54;;;;;;;0.75;0.70;;;14.50;99.90;;;;;;10417601;28;20053;-59
2021/05/24 18:25:56;;;;;;;3.50;0.73;;;14.10;99.90;;;;;;10418914;28;20053;-59
2021/05/24 18:30:58;;;;;;;3.10;1.00;;;13.80;99.90;;;;;;10418188;28;20045;-61
2021/05/24 18:36:03;;;;;;;1.13;0.90;;;13.70;99.90;;;;;;10417450;28;20416;-60
2021/05/24 18:41:07;;;;;;;2.67;0.80;;;13.40;99.90;;;;;;10417883;28;20473;-60
2021/05/24 18:46:09;;;;;;;1.30;0.95;;;13.20;99.90;;;;;;10417627;28;20420;-60
2021/05/24 18:51:11;;;;;;;0.63;0.63;;;13.40;99.90;;;;;;10417509;28;20041;-60
2021/05/24 18:56:16;;;;;;;4.28;1.42;;;13.30;99.90;;;;;;10416969;28;20120;-60
2021/05/24 19:01:19;;;;;;;3.45;1.05;;;13.10;99.90;;;;;;10415884;28;20073;-60
2021/05/24 19:06:22;;;;;;;3.90;1.77;;;13.10;99.90;;;;;;10415525;28;20439;-59
2021/05/24 19:11:27;;;;;;;2.60;1.10;;;13.00;99.90;;;;;;10417154;28;20041;-60
2021/05/24 19:16:31;;;;;;;3.97;0.90;;;12.90;99.90;;;;;;10415341;28;20056;-60
2021/05/24 19:21:33;;;;;;;0.75;0.75;;;12.80;99.90;;;;;;10416367;28;20064;-60
2021/05/24 19:26:37;;;;;;;1.15;0.90;;;12.90;99.90;;;;;;10416334;28;20037;-60
2021/05/24 19:31:39;;;;;;;1.80;0.90;;;12.80;99.90;;;;;;10415000;28;20136;-60
2021/05/24 19:36:41;;;;;;;2.45;0.93;;;12.60;99.90;;;;;;10415849;28;20053;-60
2021/05/24 19:41:45;;;;;;;2.60;1.20;;;12.50;99.90;;;;;;10415927;28;20049;-60
2021/05/24 19:46:47;;;;;;;3.70;1.58;;;12.70;99.90;;;;;;10415394;28;20128;-59
2021/05/24 20:28:32;;;;;;;3.28;1.60;;;12.00;99.90;;;;;;10415196;28;20052;-59
2021/05/24 20:33:34;;;;;;;2.95;1.83;;;12.20;99.90;;;;;;10414610;28;20045;-59
2021/05/24 20:38:37;;;;;;;1.38;1.23;;;12.20;99.90;;;;;;10413618;28;20071;-58
2021/05/24 20:43:39;;;;;;;2.08;1.27;;;12.10;99.90;;;;;;10414840;28;20076;-58
2021/05/24 20:48:41;;;;;;;4.45;2.25;;;12.10;99.90;;;;;;10414225;28;20051;-58
2021/05/24 20:53:43;;;;;;;3.90;1.60;;;12.10;99.90;;;;;;10414372;28;20494;-58
2021/05/24 20:58:46;;;;;;;3.10;1.80;;;12.00;99.90;;;;;;10418747;28;20038;-59
2021/05/24 21:03:50;;;;;;;1.42;1.33;;;11.90;99.90;;;;;;10421414;28;20037;-58
2021/05/24 21:08:53;;;;;;;3.30;2.20;;;11.90;99.90;;;;;;10421427;28;20041;-59
2021/05/24 21:13:54;;;;;;;4.55;2.00;;;11.80;99.90;;;;;;10421226;28;20048;-58
2021/05/24 21:18:56;;;;;;;2.53;2.20;;;11.80;99.90;;;;;;10421431;28;20041;-58
2021/05/24 21:23:58;;;;;;;2.90;2.25;;;11.80;99.90;;;;;;10421287;28;20045;-58
2021/05/24 21:29:00;;;;;;;1.92;1.60;;;11.70;99.90;;;;;;10421044;28;20070;-58
2021/05/24 21:39:05;;;;;;;4.95;2.75;;;11.60;99.90;;;;;;10420769;28;20044;-58
2021/05/24 21:44:07;;;;;;;4.45;2.40;;;11.60;99.90;;;;;;10420129;28;20053;-58
2021/05/24 21:49:09;;;;;;;5.72;3.15;;;11.60;99.90;;;;;;10419911;28;20052;-58
2021/05/24 21:54:11;;;;;;;5.65;2.72;;;11.50;99.90;;;;;;10419490;28;20041;-58
2021/05/24 21:59:13;;;;;;;3.08;2.78;;;11.30;99.90;;;;;;10419567;28;20509;-58
2021/05/24 22:04:15;;;;;;;6.35;2.80;;;11.30;99.90;;;;;;10419538;28;20069;-58
2021/05/24 22:09:17;;;;;;;4.10;3.40;;;11.40;99.90;;;;;;10418716;28;20103;-58
2021/05/24 22:14:19;;;;;;;3.65;2.70;;;11.40;99.90;;;;;;10418994;28;20050;-58
2021/05/24 22:19:22;;;;;;;3.20;2.05;;;11.20;99.90;;;;;;10419098;28;20049;-58
2021/05/24 22:24:24;;;;;;;3.55;2.22;;;11.20;99.90;;;;;;10418540;28;20041;-58
2021/05/24 22:29:26;;;;;;;2.88;2.00;;;11.10;99.90;;;;;;10418107;28;20501;-58
2021/05/24 22:34:28;;;;;;;2.72;2.38;;;11.10;99.90;;;;;;10416979;28;20037;-58
2021/05/24 22:39:30;;;;;;;4.30;3.30;;;11.20;99.90;;;;;;10418608;28;20041;-58
2021/05/24 22:44:32;;;;;;;3.85;2.70;;;11.10;99.90;;;;;;10417883;28;20045;-58
2021/05/24 22:49:37;;;;;;;6.60;3.38;;;11.10;99.90;;;;;;10417645;28;20075;-59
2021/05/24 22:54:39;;;;;;;3.17;2.70;;;11.00;99.90;;;;;;10417537;28;20501;-59
2021/05/24 22:59:41;;;;;;;3.72;2.13;;;11.10;99.90;;;;;;10417188;28;20049;-59
2021/05/24 23:04:43;;;;;;;5.88;3.08;;;11.10;99.90;;;;;;10417044;28;20045;-59
2021/05/24 23:09:45;;;;;;;4.95;3.05;;;10.90;99.90;;;;;;10416743;28;20438;-59
2021/05/24 23:14:47;;;;;;;5.82;3.30;;;11.10;99.90;;;;;;10416515;28;20052;-58
2021/05/24 23:19:49;;;;;;;4.13;3.08;;;11.00;99.90;;;;;;10416716;28;20045;-59
2021/05/24 23:24:51;;;;;;;9.20;3.03;;;10.90;99.90;;;;;;10416245;28;20041;-59
2021/05/24 23:29:53;;;;;;;4.15;2.65;;;10.90;99.90;;;;;;10416705;28;20045;-61
2021/05/24 23:34:55;;;;;;;7.20;4.30;;;10.80;99.90;;;;;;10415959;28;20037;-61
2021/05/24 23:39:57;;;;;;;7.60;4.80;;;10.80;99.90;;;;;;10414761;28;20497;-61
2021/05/24 23:44:59;;;;;;;5.90;4.40;;;10.80;99.90;;;;;;10415898;28;20045;-61
2021/05/24 23:50:03;;;;;;;6.60;4.28;;;10.90;99.90;;;;;;10415493;28;20493;-61
2021/05/24 23:55:08;;;;;;;7.07;5.70;;;10.90;99.90;;;;;;10415932;28;20038;-61
